Time;durP1;ratioP1;P1;durP2;ratioP2;P2;SDS_P1;SDS_P2;PMS_P1;PMS_P2;Temp;Humidity;BMP_temperature;BMP_pressure;BME280_temperature;BME280_humidity;BME280_pressure;Samples;Min_cycle;Max_cycle;Signal;HPM_P1;HPM_P2
2022/01/23 00:00:19;;;;;;;8.20;3.50;;;;;;;;;;6221260;23;20469;-92
2022/01/23 00:02:47;;;;;;;7.60;3.53;;;;;;;;;;6222782;23;20020;-93
2022/01/23 00:05:13;;;;;;;8.35;3.70;;;;;;;;;;6222950;23;20020;-92
2022/01/23 00:07:41;;;;;;;10.32;3.10;;;;;;;;;;6222117;23;20037;-91
2022/01/23 00:10:09;;;;;;;7.43;4.38;;;;;;;;;;6221893;23;20020;-91
2022/01/23 00:12:43;;;;;;;9.98;4.03;;;;;;;;;;6221765;23;20013;-91
2022/01/23 00:17:54;;;;;;;8.23;3.80;;;;;;;;;;6247264;23;20035;-93
2022/01/23 00:20:20;;;;;;;12.48;5.00;;;;;;;;;;6222282;23;20515;-91
2022/01/23 00:22:50;;;;;;;6.28;3.78;;;;;;;;;;6222497;23;20523;-91
2022/01/23 00:30:49;;;;;;;6.57;4.35;;;;;;;;;;6247917;23;20521;-91
2022/01/23 00:33:23;;;;;;;8.95;4.35;;;;;;;;;;6222174;23;20012;-91
2022/01/23 00:35:49;;;;;;;6.75;4.25;;;;;;;;;;6222399;23;20012;-92
2022/01/23 00:38:17;;;;;;;9.60;4.30;;;;;;;;;;6222367;23;20044;-93
2022/01/23 00:40:44;;;;;;;6.68;3.97;;;;;;;;;;6247165;23;20016;-91
2022/01/23 00:43:17;;;;;;;9.68;3.90;;;;;;;;;;6222196;23;20020;-92
2022/01/23 00:45:54;;;;;;;7.22;4.25;;;;;;;;;;6247356;23;20016;-91
2022/01/23 00:48:26;;;;;;;13.93;4.65;;;;;;;;;;6221964;23;20024;-91
2022/01/23 00:50:52;;;;;;;12.40;4.30;;;;;;;;;;6221870;23;20026;-92
2022/01/23 00:53:18;;;;;;;9.73;4.93;;;;;;;;;;6221800;23;20449;-91
2022/01/23 00:55:45;;;;;;;13.00;4.75;;;;;;;;;;6246537;23;20095;-92
2022/01/23 00:58:11;;;;;;;7.20;3.97;;;;;;;;;;6221600;23;20016;-90
2022/01/23 01:00:38;;;;;;;7.03;4.95;;;;;;;;;;6247172;23;20031;-91
2022/01/23 01:03:04;;;;;;;10.20;4.20;;;;;;;;;;6223001;23;20090;-91
2022/01/23 01:05:30;;;;;;;9.10;4.07;;;;;;;;;;6247182;23;20073;-93
2022/01/23 01:07:57;;;;;;;11.18;4.00;;;;;;;;;;6248275;23;20016;-91
2022/01/23 01:10:29;;;;;;;8.93;3.85;;;;;;;;;;6246888;23;20020;-92
2022/01/23 01:12:59;;;;;;;9.82;4.28;;;;;;;;;;6221306;23;20449;-91
2022/01/23 01:15:55;;;;;;;6.05;4.80;;;;;;;;;;6246604;23;20020;-90
2022/01/23 01:32:09;;;;;;;10.07;4.28;;;;;;;;;;6246030;23;20551;-93
2022/01/23 01:34:47;;;;;;;6.68;3.85;;;;;;;;;;6221861;23;20515;-91
2022/01/23 01:37:13;;;;;;;8.82;4.65;;;;;;;;;;6220675;23;20043;-91
2022/01/23 01:39:39;;;;;;;8.88;3.88;;;;;;;;;;6247020;23;20465;-91
2022/01/23 01:42:06;;;;;;;9.00;4.45;;;;;;;;;;6222883;23;20063;-91
2022/01/23 01:44:32;;;;;;;22.38;5.10;;;;;;;;;;6246306;23;20016;-91
2022/01/23 01:46:58;;;;;;;8.98;4.68;;;;;;;;;;6220997;23;20146;-91
2022/01/23 01:49:30;;;;;;;9.57;4.30;;;;;;;;;;6221704;23;20091;-91
2022/01/23 01:51:57;;;;;;;8.13;3.83;;;;;;;;;;6221139;23;20006;-91
2022/01/23 01:54:26;;;;;;;8.90;4.50;;;;;;;;;;6220578;23;20450;-90
2022/01/23 01:57:04;;;;;;;6.43;3.10;;;;;;;;;;6221035;23;20330;-91
2022/01/23 02:10:49;;;;;;;8.10;4.65;;;;;;;;;;6073296;23;20085;-91
2022/01/23 02:13:19;;;;;;;10.23;5.15;;;;;;;;;;6073252;23;20018;-91
2022/01/23 02:52:02;;;;;;;11.75;4.30;;;;;;;;;;6247170;23;20016;-92
2022/01/23 02:54:27;;;;;;;5.70;4.38;;;;;;;;;;6243790;23;20028;-91
2022/01/23 02:56:57;;;;;;;8.18;4.55;;;;;;;;;;6221045;23;20453;-94
2022/01/23 02:59:29;;;;;;;10.55;4.10;;;;;;;;;;6220814;23;20027;-90
2022/01/23 03:04:28;;;;;;;9.63;4.38;;;;;;;;;;6245247;23;20020;-91
2022/01/23 03:07:11;;;;;;;11.25;5.28;;;;;;;;;;6222979;23;20109;-93
2022/01/23 03:30:52;;;;;;;10.20;3.88;;;;;;;;;;6245778;23;20021;-90
2022/01/23 03:33:18;;;;;;;8.32;4.57;;;;;;;;;;6220923;23;20059;-91
2022/01/23 03:35:44;;;;;;;10.02;5.10;;;;;;;;;;6247530;23;20078;-90
2022/01/23 03:38:10;;;;;;;10.95;5.13;;;;;;;;;;6221964;23;20107;-92
2022/01/23 03:40:37;;;;;;;9.27;5.20;;;;;;;;;;6222074;23;20409;-91
2022/01/23 03:43:11;;;;;;;9.10;4.47;;;;;;;;;;6221791;23;20527;-91
2022/01/23 03:50:40;;;;;;;9.68;4.97;;;;;;;;;;6247172;23;20024;-91
2022/01/23 03:53:06;;;;;;;14.27;4.32;;;;;;;;;;6247093;23;20023;-93
2022/01/23 03:55:32;;;;;;;11.30;5.20;;;;;;;;;;6247369;23;20039;-91
2022/01/23 03:57:58;;;;;;;12.25;4.70;;;;;;;;;;6221796;23;20119;-93
2022/01/23 04:00:24;;;;;;;14.18;4.30;;;;;;;;;;6222585;23;20042;-92
2022/01/23 04:02:51;;;;;;;7.38;4.25;;;;;;;;;;6248149;23;20091;-92
2022/01/23 04:05:17;;;;;;;9.00;5.03;;;;;;;;;;6248022;23;20078;-92
2022/01/23 04:07:43;;;;;;;7.00;4.40;;;;;;;;;;6222267;23;20458;-92
2022/01/23 04:10:12;;;;;;;10.07;4.60;;;;;;;;;;6247261;23;20027;-91
2022/01/23 04:12:55;;;;;;;9.35;4.65;;;;;;;;;;6221751;23;20016;-91
2022/01/23 04:16:14;;;;;;;6.35;4.38;;;;;;;;;;6221792;23;20016;-91
2022/01/23 04:31:48;;;;;;;6.57;4.38;;;;;;;;;;6247182;23;20031;-91
2022/01/23 04:34:28;;;;;;;8.95;5.43;;;;;;;;;;6221629;23;20016;-91
2022/01/23 05:06:38;;;;;;;12.93;4.70;;;;;;;;;;6247320;23;20051;-93
2022/01/23 05:09:07;;;;;;;10.45;4.88;;;;;;;;;;6247080;23;20031;-91
2022/01/23 05:11:34;;;;;;;16.35;5.05;;;;;;;;;;6246592;23;20016;-93
2022/01/23 05:14:01;;;;;;;11.30;4.72;;;;;;;;;;6246773;23;20027;-92
2022/01/23 05:16:28;;;;;;;8.55;4.43;;;;;;;;;;6246384;23;20016;-93
2022/01/23 05:18:54;;;;;;;8.18;4.35;;;;;;;;;;6221491;23;20016;-92
2022/01/23 05:23:52;;;;;;;9.90;4.78;;;;;;;;;;6247181;23;20082;-92
2022/01/23 05:26:18;;;;;;;13.60;4.57;;;;;;;;;;6221414;23;20012;-92
2022/01/23 05:28:44;;;;;;;8.02;4.70;;;;;;;;;;6221896;23;20020;-91
2022/01/23 05:31:10;;;;;;;13.45;5.95;;;;;;;;;;6246550;23;20020;-93
2022/01/23 05:33:36;;;;;;;8.98;4.95;;;;;;;;;;6246339;23;20434;-91
2022/01/23 05:36:04;;;;;;;6.97;5.00;;;;;;;;;;6220744;23;20016;-92
2022/01/23 05:38:30;;;;;;;12.85;5.63;;;;;;;;;;6246300;23;20016;-94
2022/01/23 05:40:58;;;;;;;13.95;5.82;;;;;;;;;;6220955;23;20012;-92
2022/01/23 05:43:24;;;;;;;10.43;5.80;;;;;;;;;;6246533;23;20066;-94
2022/01/23 05:45:51;;;;;;;11.95;4.88;;;;;;;;;;6221491;23;20012;-92
2022/01/23 05:48:17;;;;;;;10.82;4.80;;;;;;;;;;6221466;23;20018;-94
2022/01/23 05:50:44;;;;;;;12.20;5.68;;;;;;;;;;6221723;23;20022;-94
2022/01/23 05:53:10;;;;;;;10.82;4.93;;;;;;;;;;6221751;23;20012;-94
2022/01/23 05:55:36;;;;;;;11.45;5.22;;;;;;;;;;6222141;23;20299;-94
2022/01/23 05:58:02;;;;;;;14.85;6.22;;;;;;;;;;6221503;23;20438;-92
2022/01/23 06:00:28;;;;;;;9.80;5.95;;;;;;;;;;6247886;23;20022;-92
2022/01/23 06:02:54;;;;;;;10.50;5.63;;;;;;;;;;6246589;23;20022;-92
2022/01/23 06:05:20;;;;;;;9.52;5.93;;;;;;;;;;6221270;23;20024;-92
2022/01/23 06:07:48;;;;;;;11.38;6.35;;;;;;;;;;6222835;23;20023;-92
2022/01/23 06:10:24;;;;;;;7.97;5.65;;;;;;;;;;6220975;23;20024;-92
2022/01/23 06:12:50;;;;;;;11.27;5.85;;;;;;;;;;6246897;23;20016;-94
2022/01/23 06:15:17;;;;;;;10.18;5.28;;;;;;;;;;6221528;23;20016;-91
2022/01/23 06:17:43;;;;;;;9.18;5.38;;;;;;;;;;6247043;23;20326;-94
2022/01/23 06:20:11;;;;;;;13.65;6.35;;;;;;;;;;6222477;23;20012;-95
2022/01/23 06:22:37;;;;;;;12.48;6.65;;;;;;;;;;6223463;23;20016;-94
2022/01/23 06:25:05;;;;;;;14.27;6.22;;;;;;;;;;6221910;23;20012;-91
2022/01/23 06:27:32;;;;;;;11.35;5.63;;;;;;;;;;6221013;23;20074;-91
2022/01/23 06:29:58;;;;;;;12.63;6.00;;;;;;;;;;6220652;23;20020;-92
2022/01/23 06:32:24;;;;;;;11.00;5.85;;;;;;;;;;6221159;23;20016;-91
2022/01/23 06:34:50;;;;;;;7.43;4.68;;;;;;;;;;6220760;23;20016;-91
2022/01/23 06:37:17;;;;;;;9.48;5.13;;;;;;;;;;6220884;23;20016;-90
2022/01/23 06:39:43;;;;;;;11.05;5.47;;;;;;;;;;6245369;23;20592;-91
2022/01/23 06:42:10;;;;;;;8.75;5.40;;;;;;;;;;6220374;23;20035;-91
2022/01/23 06:44:37;;;;;;;10.45;5.00;;;;;;;;;;6220462;23;20020;-90
2022/01/23 06:47:04;;;;;;;9.70;6.40;;;;;;;;;;6246523;23;20020;-91
2022/01/23 06:49:30;;;;;;;8.75;5.90;;;;;;;;;;6220461;23;20020;-90
2022/01/23 06:51:57;;;;;;;11.95;5.88;;;;;;;;;;6220172;23;20016;-90
2022/01/23 06:54:23;;;;;;;8.77;5.78;;;;;;;;;;6245682;23;20038;-90
2022/01/23 06:56:49;;;;;;;11.60;6.13;;;;;;;;;;6245607;23;20012;-90
2022/01/23 06:59:15;;;;;;;15.02;6.75;;;;;;;;;;6220465;23;20016;-90
2022/01/23 07:01:44;;;;;;;18.90;8.07;;;;;;;;;;6220346;23;20017;-90
2022/01/23 07:04:10;;;;;;;9.07;6.82;;;;;;;;;;6220676;23;20020;-90
2022/01/23 07:06:36;;;;;;;15.07;7.00;;;;;;;;;;6220832;23;20016;-90
2022/01/23 07:09:03;;;;;;;16.08;7.13;;;;;;;;;;6247265;23;20377;-91
2022/01/23 07:11:29;;;;;;;12.30;6.05;;;;;;;;;;6223122;23;20093;-90
2022/01/23 07:13:58;;;;;;;14.90;7.32;;;;;;;;;;6224334;23;20074;-95
2022/01/23 07:16:24;;;;;;;15.30;8.25;;;;;;;;;;6225785;23;20012;-92
2022/01/23 07:18:55;;;;;;;15.02;7.18;;;;;;;;;;6251314;23;20333;-91
2022/01/23 07:21:22;;;;;;;16.15;7.40;;;;;;;;;;6249925;23;20083;-90
2022/01/23 07:23:51;;;;;;;14.27;7.72;;;;;;;;;;6248847;23;20020;-91
2022/01/23 07:26:23;;;;;;;12.55;6.95;;;;;;;;;;6224934;23;20027;-91
2022/01/23 07:28:51;;;;;;;17.77;7.22;;;;;;;;;;6224026;23;20020;-91
2022/01/23 07:34:11;;;;;;;;;;;5.70;99.90;;;;;;6249934;23;20024;-91
2022/01/23 07:36:38;;;;;;;13.73;7.90;;;;;;;;;;6248412;23;20412;-92
2022/01/23 07:39:05;;;;;;;13.73;7.55;;;;;;;;;;6224370;23;20038;-92
2022/01/23 07:41:31;;;;;;;21.00;7.05;;;;;;;;;;6224201;23;20012;-92
2022/01/23 07:44:00;;;;;;;12.38;7.53;;;;;;;;;;6222411;23;20016;-91
2022/01/23 07:46:26;;;;;;;11.07;6.78;;;;;;;;;;6222946;23;20054;-92
2022/01/23 07:48:52;;;;;;;19.92;6.53;;;;;;;;;;6222812;23;20070;-92
2022/01/23 07:51:18;;;;;;;22.35;8.07;;;;;;;;;;6223293;23;20016;-91
2022/01/23 07:53:44;;;;;;;16.95;7.88;;;;;;;;;;6247243;23;20446;-91
2022/01/23 07:56:10;;;;;;;17.30;7.20;;;;;;;;;;6223603;23;20114;-92
2022/01/23 07:58:37;;;;;;;14.18;7.47;;;;;;;;;;6223394;23;20016;-91
2022/01/23 08:03:47;;;;;;;15.23;6.68;;;;;;;;;;6247022;23;20373;-91
2022/01/23 08:06:15;;;;;;;15.25;7.35;;;;;;;;;;6221123;23;20107;-92
2022/01/23 08:08:41;;;;;;;22.73;5.90;;;;;;;;;;6220197;23;20070;-91
2022/01/23 08:11:08;;;;;;;19.13;6.03;;;;;;;;;;6219437;23;20016;-92
2022/01/23 08:13:34;;;;;;;27.00;7.20;;;;;;;;;;6245586;23;20036;-92
2022/01/23 08:16:00;;;;;;;18.30;6.28;;;;;;;;;;6220153;23;20064;-91
2022/01/23 08:18:26;;;;;;;25.73;6.80;;;;;;;;;;6221059;23;20047;-93
2022/01/23 08:20:53;;;;;;;23.92;6.15;;;;;;;;;;6222873;23;20013;-93
2022/01/23 08:23:20;;;;;;;11.25;5.18;;;;;;;;;;6222679;23;20071;-92
2022/01/23 08:25:46;;;;;;;8.63;5.43;;;;;;;;;;6222426;23;20023;-93
2022/01/23 08:28:14;;;;;;;10.80;5.20;;;;;;;;;;6247312;23;20027;-89
2022/01/23 08:30:43;;;;;;;20.20;6.40;;;;;;;;;;6222687;23;20058;-90
2022/01/23 08:33:09;;;;;;;11.02;6.35;;;;;;;;;;6249580;23;20020;-90
2022/01/23 08:35:35;;;;;;;11.80;5.78;;;;;;;;;;6247308;23;20019;-91
2022/01/23 08:38:01;;;;;;;6.18;3.90;;;;;;;;;;6247616;23;20095;-90
2022/01/23 08:43:08;;;;;;;8.05;4.80;;;;;;;;;;6247186;23;20099;-91
2022/01/23 08:45:35;;;;;;;7.28;4.72;;;;;;;;;;6222708;23;20020;-91
2022/01/23 08:48:01;;;;;;;8.05;5.57;;;;;;;;;;6222211;23;20354;-92
2022/01/23 08:50:27;;;;;;;8.23;5.13;;;;;;;;;;6222312;23;20026;-91
2022/01/23 08:52:53;;;;;;;7.20;5.10;;;;;;;;;;6222362;23;20016;-91
2022/01/23 08:55:20;;;;;;;11.73;5.32;;;;;;;;;;6249263;23;20028;-92
2022/01/23 08:57:47;;;;;;;10.00;5.18;;;;;;;;;;6223816;23;20081;-90
2022/01/23 09:00:14;;;;;;;8.13;4.53;;;;;;;;;;6222085;23;20016;-93
2022/01/23 09:02:40;;;;;;;6.25;4.78;;;;;;;;;;6223404;23;20329;-91
2022/01/23 09:05:07;;;;;;;7.78;4.95;;;;;;;;;;6222356;23;20070;-89
2022/01/23 09:07:33;;;;;;;6.25;4.63;;;;;;;;;;6247236;23;20020;-90
2022/01/23 09:10:01;;;;;;;6.13;4.47;;;;;;;;;;6221935;23;20384;-91
2022/01/23 09:14:54;;;;;;;7.10;4.80;;;;;;;;;;6249071;23;20058;-90
2022/01/23 09:17:20;;;;;;;9.05;5.78;;;;;;;;;;6224875;23;20022;-91
2022/01/23 09:19:49;;;;;;;9.38;6.15;;;;;;;;;;6221524;23;20023;-91
2022/01/23 09:22:20;;;;;;;8.55;5.22;;;;;;;;;;6222684;23;20027;-92
2022/01/23 09:24:46;;;;;;;7.78;5.45;;;;;;;;;;6248396;23;20338;-91
2022/01/23 09:27:19;;;;;;;13.13;5.65;;;;;;;;;;6222674;23;20016;-91
2022/01/23 09:29:48;;;;;;;11.95;4.93;;;;;;;;;;6222954;23;20027;-91
2022/01/23 09:32:15;;;;;;;15.18;5.60;;;;;;;;;;6219770;23;20102;-90
2022/01/23 09:34:42;;;;;;;7.15;4.97;;;;;;;;;;6219909;23;20019;-91
2022/01/23 09:37:10;;;;;;;10.73;5.78;;;;;;;;;;6247272;23;20389;-90
2022/01/23 09:39:37;;;;;;;8.13;6.15;;;;;;;;;;6245283;23;20012;-93
2022/01/23 09:42:10;;;;;;;6.28;5.00;;;;;;;;;;6220124;23;20098;-91
2022/01/23 09:44:51;;;;;;;6.97;5.15;;;;;;;;;;6220939;23;20012;-92
2022/01/23 09:47:23;;;;;;;5.07;4.40;;;;;;;;;;6247506;23;20058;-91
2022/01/23 09:49:50;;;;;;;7.97;4.05;;;;;;;;;;6222361;23;20016;-93
2022/01/23 09:52:20;;;;;;;6.15;4.53;;;;;;;;;;6224192;23;20050;-92
2022/01/23 09:54:56;;;;;;;4.78;3.38;;;;;;;;;;6222783;23;20055;-90
2022/01/23 09:57:24;;;;;;;6.13;3.97;;;;;;;;;;6248112;23;20062;-92
2022/01/23 09:59:54;;;;;;;5.82;3.63;;;;;;;;;;6222674;23;20023;-92
2022/01/23 10:02:25;;;;;;;4.82;3.35;;;;;;;;;;6247561;23;20019;-92
2022/01/23 10:04:52;;;;;;;7.00;3.78;;;;;;;;;;6222230;23;20016;-93
2022/01/23 10:07:18;;;;;;;6.32;3.88;;;;;;;;;;6222884;23;20019;-92
2022/01/23 10:09:52;;;;;;;6.25;3.88;;;;;;;;;;6247278;23;20206;-93
2022/01/23 10:12:26;;;;;;;3.63;3.33;;;;;;;;;;6222279;23;20318;-90
2022/01/23 10:14:56;;;;;;;4.35;3.42;;;;;;;;;;6222637;23;20056;-94
2022/01/23 10:17:23;;;;;;;5.50;3.17;;;;;;;;;;6222638;23;20012;-91
2022/01/23 10:19:49;;;;;;;4.82;2.80;;;;;;;;;;6221727;23;20012;-92
2022/01/23 10:22:16;;;;;;;3.83;2.72;;;;;;;;;;6246668;23;20020;-92
2022/01/23 10:24:42;;;;;;;4.45;2.80;;;;;;;;;;6246984;23;20299;-92
2022/01/23 10:27:09;;;;;;;4.53;3.28;;;;;;;;;;6221285;23;20087;-91
2022/01/23 10:29:37;;;;;;;5.95;3.90;;;;;;;;;;6220825;23;20030;-93
2022/01/23 10:32:11;;;;;;;6.22;3.40;;;;;;;;;;6221998;23;20329;-93
2022/01/23 10:34:43;;;;;;;3.67;2.80;;;;;;;;;;6222066;23;20073;-92
2022/01/23 10:37:11;;;;;;;3.15;2.63;;;;;;;;;;6223288;23;20016;-91
2022/01/23 10:39:46;;;;;;;5.45;3.17;;;;;;;;;;6222068;23;20023;-92
2022/01/23 10:47:58;;;;;;;4.15;3.10;;;;;;;;;;6249718;23;20016;-92
2022/01/23 10:50:25;;;;;;;6.13;4.10;;;;;;;;;;6223317;23;20020;-92
2022/01/23 10:52:54;;;;;;;7.90;3.85;;;;;;;;;;6222979;23;20510;-91
2022/01/23 10:55:20;;;;;;;6.28;3.20;;;;;;;;;;6223639;23;20032;-91
2022/01/23 10:57:48;;;;;;;3.88;3.47;;;;;;;;;;6223785;23;20016;-91
2022/01/23 11:00:25;;;;;;;5.03;3.38;;;;;;;;;;6224596;23;20028;-92
2022/01/23 11:02:54;;;;;;;4.45;3.70;;;;;;;;;;6224866;23;20020;-91
2022/01/23 11:05:22;;;;;;;9.20;4.45;;;;;;;;;;6249958;23;20406;-91
2022/01/23 11:07:49;;;;;;;3.95;3.33;;;;;;;;;;6250795;23;20020;-91
2022/01/23 11:10:22;;;;;;;5.28;3.28;;;;;;;;;;6224616;23;20024;-91
2022/01/23 11:18:04;;;;;;;3.58;3.08;;;;;;;;;;6249553;23;20016;-92
2022/01/23 11:20:33;;;;;;;3.47;3.13;;;;;;;;;;6224128;23;20020;-91
2022/01/23 11:23:13;;;;;;;7.57;3.83;;;;;;;;;;6224575;23;20023;-91
2022/01/23 11:25:42;;;;;;;5.30;3.25;;;;;;;;;;6224427;23;20091;-91
2022/01/23 11:28:09;;;;;;;3.92;3.10;;;;;;;;;;6223626;23;20042;-90
2022/01/23 11:30:38;;;;;;;3.35;3.05;;;;;;;;;;6223565;23;20026;-91
2022/01/23 11:33:04;;;;;;;4.35;3.50;;;;;;;;;;6222544;23;20012;-91
2022/01/23 11:35:31;;;;;;;4.93;3.13;;;;;;;;;;6248734;23;20027;-91
2022/01/23 11:37:58;;;;;;;3.88;3.25;;;;;;;;;;6249194;23;20070;-91
2022/01/23 11:53:43;;;;;;;5.00;3.03;;;;;;;;;;6248937;23;20020;-90
2022/01/23 11:54:07;;;;;;;4.35;3.10;;;;;;;;;;6249178;23;20361;-91
2022/01/23 11:56:43;;;;;;;5.03;2.92;;;;;;;;;;6223149;23;20016;-91
2022/01/23 11:59:21;;;;;;;3.58;2.90;;;;;;;;;;6248932;23;20012;-92
2022/01/23 12:02:22;;;;;;;3.58;2.80;;;7.10;99.90;;;;;;6248847;23;20012;-91
2022/01/23 12:05:07;;;;;;;8.73;3.72;;;;;;;;;;6224612;23;20016;-91
2022/01/23 12:07:39;;;;;;;3.60;3.13;;;;;;;;;;6224198;23;20012;-91
2022/01/23 12:10:15;;;;;;;5.38;3.15;;;;;;;;;;6222982;23;20024;-89
2022/01/23 12:12:48;;;;;;;5.45;2.97;;;;;;;;;;6223450;23;20429;-89
2022/01/23 12:18:20;;;;;;;3.78;2.92;;;;;;;;;;6248660;23;20020;-87
2022/01/23 12:20:47;;;;;;;4.75;3.00;;;;;;;;;;6223965;23;20314;-88
2022/01/23 12:23:17;;;;;;;4.75;3.08;;;;;;;;;;6247600;23;20047;-88
2022/01/23 12:25:47;;;;;;;2.90;2.33;;;;;;;;;;6222262;23;20020;-88
2022/01/23 12:28:17;;;;;;;2.58;2.33;;;;;;;;;;6247603;23;20047;-88
2022/01/23 12:30:44;;;;;;;3.42;2.50;;;;;;;;;;6222340;23;20476;-88
2022/01/23 12:33:17;;;;;;;2.90;2.60;;;;;;;;;;6221994;23;20012;-87
2022/01/23 12:35:45;;;;;;;5.00;2.55;;;;;;;;;;6222157;23;20018;-88
2022/01/23 12:38:13;;;;;;;3.80;2.50;;;;;;;;;;6222094;23;20035;-88
2022/01/23 12:40:45;;;;;;;3.65;2.42;;;;;;;;;;6246678;23;20087;-88
2022/01/23 12:43:16;;;;;;;2.83;2.55;;;;;;;;;;6221635;23;20099;-88
2022/01/23 12:45:43;;;;;;;3.90;2.50;;;;;;;;;;6247107;23;20019;-88
2022/01/23 12:48:29;;;;;;;7.78;2.67;;;;;;;;;;6222274;23;20099;-88
2022/01/23 12:50:58;;;;;;;3.67;2.38;;;;;;;;;;6247972;23;20020;-88
2022/01/23 12:53:38;;;;;;;4.30;3.00;;;;;;;;;;6222036;23;20026;-88
2022/01/23 12:56:10;;;;;;;3.50;3.13;;;;;;;;;;6247238;23;20016;-88
2022/01/23 12:58:36;;;;;;;4.68;3.22;;;;;;;;;;6223353;23;20023;-88
2022/01/23 13:01:07;;;;;;;6.25;3.10;;;;;;;;;;6222078;23;20342;-88
2022/01/23 13:03:34;;;;;;;4.80;3.53;;;;;;;;;;6248101;23;20073;-88
2022/01/23 13:06:01;;;;;;;4.43;3.25;;;;;;;;;;6221675;23;20051;-88
2022/01/23 13:08:31;;;;;;;6.63;3.03;;;;;;;;;;6222444;23;20020;-88
2022/01/23 13:13:49;;;;;;;6.75;4.47;;;;;;;;;;6247380;23;20020;-87
2022/01/23 13:16:33;;;;;;;6.70;3.72;;;;;;;;;;6222964;23;20409;-88
2022/01/23 13:19:58;;;;;;;5.47;4.13;;;;;;;;;;6222318;23;20441;-88
2022/01/23 13:30:07;;;;;;;6.35;4.03;;;;;;;;;;6247641;23;20062;-88
2022/01/23 13:32:48;;;;;;;;;;;7.40;99.90;;;;;;6247154;23;20016;-88
2022/01/23 13:35:16;;;;;;;6.55;3.33;;;;;;;;;;6222159;23;20313;-89
2022/01/23 13:37:44;;;;;;;5.10;3.47;;;;;;;;;;6247015;23;20105;-88
2022/01/23 13:40:20;;;;;;;6.45;3.50;;;;;;;;;;6222233;23;20453;-87
2022/01/23 14:04:31;;;;;;;6.70;2.90;;;;;;;;;;6247368;23;20408;-88
2022/01/23 14:06:57;;;;;;;6.53;3.50;;;;;;;;;;6222259;23;20017;-87
2022/01/23 14:09:26;;;;;;;5.93;4.20;;;;;;;;;;6221798;23;20023;-88
2022/01/23 14:11:52;;;;;;;4.78;3.33;;;;;;;;;;6247324;23;20027;-88
2022/01/23 14:14:19;;;;;;;6.78;3.83;;;;;;;;;;6221875;23;20016;-88
2022/01/23 14:16:46;;;;;;;7.43;3.40;;;;;;;;;;6221621;23;20020;-89
2022/01/23 14:19:31;;;;;;;4.97;3.60;;;;;;;;;;6220814;23;20016;-87
2022/01/23 14:21:59;;;;;;;5.38;3.47;;;;;;;;;;6247368;23;20454;-88
2022/01/23 14:24:38;;;;;;;6.57;3.80;;;;;;;;;;6247358;23;20384;-88
2022/01/23 14:27:09;;;;;;;5.55;2.95;;;;;;;;;;6246810;23;20047;-88
2022/01/23 14:29:46;;;;;;;5.55;3.60;;;;;;;;;;6222161;23;20027;-88
2022/01/23 14:32:19;;;;;;;7.15;3.72;;;;;;;;;;6246157;23;20020;-88
2022/01/23 14:34:45;;;;;;;5.95;3.63;;;;;;;;;;6245620;23;20027;-88
2022/01/23 14:37:11;;;;;;;4.47;3.33;;;;;;;;;;6221117;23;20022;-88
2022/01/23 14:39:38;;;;;;;6.47;4.18;;;;;;;;;;6247301;23;20019;-88
2022/01/23 14:42:14;;;;;;;4.82;3.47;;;;;;;;;;6246654;23;20051;-88
2022/01/23 14:44:40;;;;;;;5.32;3.67;;;;;;;;;;6221215;23;20039;-88
2022/01/23 14:47:09;;;;;;;6.28;4.22;;;;;;;;;;6220928;23;20028;-88
2022/01/23 14:49:37;;;;;;;6.15;3.72;;;;;;;;;;6220853;23;20024;-88
2022/01/23 14:52:05;;;;;;;6.95;4.22;;;;;;;;;;6220890;23;20031;-87
2022/01/23 14:54:33;;;;;;;6.10;4.20;;;;;;;;;;6221308;23;20012;-88
2022/01/23 14:57:04;;;;;;;6.22;3.90;;;;;;;;;;6221256;23;20012;-88
2022/01/23 14:59:31;;;;;;;7.55;4.60;;;;;;;;;;6221804;23;20016;-88
2022/01/23 15:01:58;;;;;;;7.25;4.25;;;;;;;;;;6220812;23;20016;-88
2022/01/23 15:04:25;;;;;;;6.85;4.22;;;;;;;;;;6246452;23;20398;-88
2022/01/23 15:06:54;;;;;;;6.00;4.22;;;;;;;;;;6221814;23;20023;-88
2022/01/23 15:09:22;;;;;;;8.30;3.92;;;;;;;;;;6221328;23;20052;-88
2022/01/23 15:11:48;;;;;;;10.90;4.90;;;;;;;;;;6247560;23;20012;-88
2022/01/23 15:14:15;;;;;;;6.43;4.55;;;;;;;;;;6247867;23;20572;-88
2022/01/23 15:16:41;;;;;;;7.43;4.65;;;;;;;;;;6222496;23;20013;-89
2022/01/23 15:19:08;;;;;;;10.23;4.82;;;;;;;;;;6221104;23;20028;-88
2022/01/23 15:21:35;;;;;;;6.55;4.20;;;;;;;;;;6246372;23;20078;-88
2022/01/23 15:24:01;;;;;;;6.22;3.90;;;;;;;;;;6246130;23;20044;-88
2022/01/23 15:26:31;;;;;;;10.68;4.57;;;;;;;;;;6246188;23;20071;-88
2022/01/23 15:28:58;;;;;;;4.97;3.97;;;;;;;;;;6221391;23;20012;-88
2022/01/23 15:31:24;;;;;;;6.20;4.40;;;;;;;;;;6222706;23;20023;-88
2022/01/23 15:33:50;;;;;;;5.22;3.80;;;;;;;;;;6222963;23;20439;-88
2022/01/23 15:36:17;;;;;;;7.13;4.47;;;;;;;;;;6247442;23;20020;-88
2022/01/23 15:38:44;;;;;;;7.32;4.75;;;;;;;;;;6249160;23;20102;-88
2022/01/23 15:41:14;;;;;;;4.97;4.05;;;;;;;;;;6248981;23;20012;-88
2022/01/23 15:43:40;;;;;;;8.40;5.10;;;;;;;;;;6222743;23;20099;-88
2022/01/23 15:46:06;;;;;;;7.88;4.15;;;;;;;;;;6222434;23;20016;-88
2022/01/23 15:48:33;;;;;;;6.85;5.18;;;;;;;;;;6249544;23;20027;-89
2022/01/23 15:50:59;;;;;;;7.20;5.50;;;;;;;;;;6248309;23;20023;-88
2022/01/23 15:53:26;;;;;;;10.30;5.65;;;;;;;;;;6223095;23;20074;-86
2022/01/23 15:55:52;;;;;;;9.98;4.95;;;;;;;;;;6223058;23;20020;-86
2022/01/23 15:58:18;;;;;;;7.32;4.93;;;;;;;;;;6250019;23;20016;-86
2022/01/23 16:00:45;;;;;;;7.18;5.13;;;;;;;;;;6249235;23;20020;-85
2022/01/23 16:03:12;;;;;;;6.35;4.45;;;;;;;;;;6223461;23;20023;-86
2022/01/23 16:05:38;;;;;;;7.20;5.10;;;;;;;;;;6248249;23;20083;-88
2022/01/23 16:08:05;;;;;;;7.97;5.15;;;;;;;;;;6248652;23;20016;-88
2022/01/23 16:10:31;;;;;;;7.32;5.70;;;;;;;;;;6224126;23;20020;-88
2022/01/23 16:12:57;;;;;;;8.45;5.82;;;;;;;;;;6249836;23;20016;-89
2022/01/23 16:15:23;;;;;;;9.80;6.18;;;;;;;;;;6223230;23;20016;-88
2022/01/23 16:17:50;;;;;;;9.23;6.07;;;;;;;;;;6222964;23;20023;-88
2022/01/23 16:20:17;;;;;;;8.45;5.53;;;;;;;;;;6248421;23;20012;-88
2022/01/23 16:22:44;;;;;;;7.20;4.80;;;;;;;;;;6223151;23;20095;-88
2022/01/23 16:25:11;;;;;;;17.08;5.63;;;;;;;;;;6223074;23;20095;-88
2022/01/23 16:27:37;;;;;;;21.38;7.88;;;;;;;;;;6222197;23;20016;-88
2022/01/23 16:30:04;;;;;;;10.70;7.00;;;;;;;;;;6222889;23;20016;-89
2022/01/23 16:32:30;;;;;;;7.88;5.28;;;;;;;;;;6223343;23;20012;-88
2022/01/23 16:34:57;;;;;;;7.15;5.57;;;;;;;;;;6223425;23;20043;-88
2022/01/23 16:37:23;;;;;;;6.30;5.10;;;;;;;;;;6249330;23;20342;-90
2022/01/23 16:39:49;;;;;;;8.98;5.43;;;;;;;;;;6251312;23;20442;-90
2022/01/23 16:42:18;;;;;;;8.73;5.35;;;;;;;;;;6228479;23;20418;-90
2022/01/23 16:44:45;;;;;;;8.75;5.75;;;;;;;;;;6226056;23;20027;-90
2022/01/23 16:47:12;;;;;;;9.77;4.78;;;;;;;;;;6224532;23;20027;-90
2022/01/23 16:49:39;;;;;;;10.35;6.05;;;;;;;;;;6223962;23;20062;-89
2022/01/23 16:52:05;;;;;;;11.05;4.70;;;;;;;;;;6225951;23;20049;-88
2022/01/23 16:54:32;;;;;;;7.40;5.18;;;;;;;;;;6225931;23;20124;-88
2022/01/23 16:56:58;;;;;;;10.93;4.60;;;;;;;;;;6225035;23;20019;-89
2022/01/23 16:59:26;;;;;;;6.80;4.28;;;;;;;;;;6250941;23;20023;-89
2022/01/23 17:01:52;;;;;;;5.88;4.60;;;;;;;;;;6225731;23;20035;-89
2022/01/23 17:04:18;;;;;;;6.38;5.05;;;;;;;;;;6250206;23;20019;-90
2022/01/23 17:06:45;;;;;;;6.13;4.70;;;;;;;;;;6224513;23;20020;-89
2022/01/23 17:09:14;;;;;;;7.10;4.95;;;;;;;;;;6225181;23;20019;-89
2022/01/23 17:11:40;;;;;;;6.68;5.07;;;;;;;;;;6224552;23;20012;-90
2022/01/23 17:14:06;;;;;;;15.55;4.78;;;;;;;;;;6225817;23;20020;-91
2022/01/23 17:16:32;;;;;;;4.90;4.40;;;;;;;;;;6226714;23;20342;-90
2022/01/23 17:18:59;;;;;;;8.02;5.50;;;;;;;;;;6252968;23;20042;-90
2022/01/23 17:21:25;;;;;;;6.90;4.47;;;;;;;;;;6225903;23;20027;-89
2022/01/23 17:23:51;;;;;;;5.80;4.28;;;;;;;;;;6222040;23;20043;-87
2022/01/23 17:26:18;;;;;;;7.15;4.97;;;;;;;;;;6248131;23;20022;-86
2022/01/23 17:28:45;;;;;;;19.90;6.53;;;;;;;;;;6221446;23;20085;-87
2022/01/23 17:31:11;;;;;;;10.32;6.72;;;;;;;;;;6246592;23;20099;-87
2022/01/23 17:33:37;;;;;;;10.73;5.85;;;;;;;;;;6221653;23;20012;-87
2022/01/23 17:36:03;;;;;;;6.75;5.28;;;;;;;;;;6221478;23;20020;-87
2022/01/23 17:38:30;;;;;;;8.77;4.97;;;;;;;;;;6247031;23;20016;-87
2022/01/23 17:40:56;;;;;;;5.25;3.85;;;;;;;;;;6246968;23;20357;-87
2022/01/23 17:43:22;;;;;;;8.23;5.22;;;;;;;;;;6248259;23;20031;-87
2022/01/23 17:45:51;;;;;;;8.18;4.68;;;;;;;;;;6247353;23;20059;-87
2022/01/23 17:51:08;;;;;;;6.25;4.97;;;;;;;;;;6190454;23;20028;-88
2022/01/23 17:53:35;;;;;;;8.80;4.88;;;;;;;;;;6190388;23;20016;-87
2022/01/23 17:56:01;;;;;;;7.03;4.57;;;;;;;;;;6215688;23;20107;-87
2022/01/23 17:58:28;;;;;;;6.97;4.20;;;;;;;;;;6189763;23;20066;-87
2022/01/23 18:00:55;;;;;;;14.05;5.55;;;;;;;;;;6190493;23;20020;-87
2022/01/23 18:03:22;;;;;;;9.73;4.78;;;;;;;;;;6190277;23;20043;-87
2022/01/23 18:05:49;;;;;;;8.05;4.72;;;;;;;;;;6191413;23;20021;-87
2022/01/23 18:08:15;;;;;;;5.55;4.63;;;;;;;;;;6191227;23;20021;-87
2022/01/23 18:10:42;;;;;;;6.22;4.40;;;;;;;;;;6192196;23;20026;-87
2022/01/23 18:13:10;;;;;;;10.85;5.05;;;;;;;;;;6190874;23;20398;-87
2022/01/23 18:15:40;;;;;;;6.10;4.78;;;;;;;;;;6191936;23;20028;-88
2022/01/23 18:18:10;;;;;;;8.07;5.00;;;;;;;;;;6188493;23;20021;-88
2022/01/23 18:20:37;;;;;;;6.47;4.50;;;;;;;;;;6190735;23;20031;-88